Time;durP1;ratioP1;P1;durP2;ratioP2;P2;SDS_P1;SDS_P2;PMS_P1;PMS_P2;Temp;Humidity;BMP_temperature;BMP_pressure;BME280_temperature;BME280_humidity;BME280_pressure;Samples;Min_cycle;Max_cycle;Signal;HPM_P1;HPM_P2
2021/12/12 00:00:14;;;;;;;86.53;37.30;;;;;;;;;;6196103;28;20085;-61
2021/12/12 00:03:40;;;;;;;89.38;39.70;;;;;;;;;;6213616;28;20058;-61
2021/12/12 00:06:46;;;;;;;91.25;38.78;;;;;;;;;;6211921;28;20049;-61
2021/12/12 00:09:52;;;;;;;88.22;37.60;;;;;;;;;;6198963;28;20046;-62
2021/12/12 00:13:06;;;;;;;92.22;42.40;;;;;;;;;;6196654;28;20137;-61
2021/12/12 00:16:07;;;;;;;86.35;38.85;;;;;;;;;;6193677;28;20129;-61
2021/12/12 00:19:08;;;;;;;89.40;39.42;;;;;;;;;;6194562;28;20045;-62
2021/12/12 00:22:12;;;;;;;92.60;40.78;;;;;;;;;;6199246;28;20452;-61
2021/12/12 00:25:14;;;;;;;90.20;41.42;;;;;;;;;;6196263;28;20204;-61
2021/12/12 00:28:19;;;;;;;94.70;42.38;;;;;;;;;;6198472;28;20050;-59
2021/12/12 00:31:22;;;;;;;92.82;41.72;;;;;;;;;;6197070;28;20051;-62
2021/12/12 00:34:25;;;;;;;91.43;40.63;;;;;;;;;;6193016;28;20133;-61
2021/12/12 00:37:27;;;;;;;90.05;40.05;;;;;;;;;;6193076;28;20046;-61
2021/12/12 00:40:38;;;;;;;94.28;41.67;;;;;;;;;;6194100;28;20068;-61
2021/12/12 00:43:47;;;;;;;93.18;40.88;;;;;;;;;;6194378;28;20151;-61
2021/12/12 00:46:47;;;;;;;92.70;40.75;;;;;;;;;;6194911;28;20073;-61
2021/12/12 00:49:49;;;;;;;89.38;40.20;;;;;;;;;;6201317;28;20053;-61
2021/12/12 00:52:51;;;;;;;85.65;40.83;;;;;;;;;;6204237;28;20508;-61
2021/12/12 00:55:54;;;;;;;82.97;38.17;;;;;;;;;;6201377;28;20053;-60
2021/12/12 00:58:55;;;;;;;90.45;40.13;;;;;;;;;;6195026;28;20038;-61
2021/12/12 01:01:57;;;;;;;84.82;39.95;;;;;;;;;;6194582;28;20532;-61
2021/12/12 01:05:00;;;;;;;;;;;;;;;;;;6196216;28;20133;-61
2021/12/12 01:08:01;;;;;;;84.07;38.87;;;;;;;;;;6198998;28;19972;-61
2021/12/12 01:11:16;;;;;;;102.28;42.78;;;;;;;;;;6195657;28;20296;-61
2021/12/12 01:14:21;;;;;;;124.32;50.33;;;;;;;;;;6199054;28;20100;-60
2021/12/12 01:17:31;;;;;;;134.90;54.63;;;;;;;;;;6195046;28;20465;-61
2021/12/12 01:20:42;;;;;;;91.18;41.15;;;;;;;;;;6197691;28;20161;-61
2021/12/12 01:23:51;;;;;;;87.93;38.57;;;;;;;;;;6195595;28;20416;-61
2021/12/12 01:26:55;;;;;;;87.53;39.30;;;;;;;;;;6194550;28;20564;-61
2021/12/12 01:29:56;;;;;;;98.38;42.38;;;;;;;;;;6197714;28;20081;-61
2021/12/12 01:32:57;;;;;;;84.82;38.88;;;;;;;;;;6196724;28;20436;-61
2021/12/12 01:36:00;;;;;;;86.65;37.58;;;;;;;;;;6194432;28;20502;-60
2021/12/12 01:39:01;;;;;;;87.70;37.22;;;;;;;;;;6197056;28;20493;-61
2021/12/12 01:42:07;;;;;;;83.53;38.22;;;;;;;;;;6197214;28;20089;-61
2021/12/12 01:45:21;;;;;;;87.70;37.40;;;;;;;;;;6196229;28;20054;-61
2021/12/12 01:48:45;;;;;;;81.72;37.20;;;;;;;;;;6200173;28;20078;-61
2021/12/12 01:51:46;;;;;;;84.18;37.20;;;;;;;;;;6192657;28;20046;-61
2021/12/12 01:54:49;;;;;;;;;;;;;;;;;;6200547;28;20049;-61
2021/12/12 01:57:52;;;;;;;89.93;38.30;;;;;;;;;;6197626;28;20439;-60
2021/12/12 02:01:09;;;;;;;91.15;39.72;;;;;;;;;;6197506;28;20081;-61
2021/12/12 02:04:14;;;;;;;88.75;39.40;;;;;;;;;;6199706;28;20081;-61
2021/12/12 02:07:18;;;;;;;92.65;41.95;;;;;;;;;;6201552;28;20046;-60
2021/12/12 02:10:28;;;;;;;102.20;45.05;;;;;;;;;;6200876;28;20054;-61
2021/12/12 02:13:31;;;;;;;99.13;45.30;;;;;;;;;;6193758;28;20089;-60
2021/12/12 02:16:32;;;;;;;97.40;46.55;;;;;;;;;;6209255;28;20053;-61
2021/12/12 02:36:00;;;;;;;80.20;35.20;;;;;;;;;;6195808;28;20061;-60
2021/12/12 02:39:08;;;;;;;87.00;38.10;;;;;;;;;;6193948;28;20050;-61
2021/12/12 02:42:12;;;;;;;85.25;37.40;;;;;;;;;;6194670;28;20050;-61
2021/12/12 02:45:16;;;;;;;85.50;38.08;;;;;;;;;;6195455;28;20437;-61
2021/12/12 02:48:19;;;;;;;91.63;40.47;;;;;;;;;;6203121;28;20048;-61
2021/12/12 02:51:20;;;;;;;80.82;37.92;;;;;;;;;;6200927;28;20049;-61
2021/12/12 02:54:22;;;;;;;88.18;38.42;;;;;;;;;;6196764;28;20054;-61
2021/12/12 02:57:23;;;;;;;84.72;39.15;;;;;;;;;;6198038;28;20042;-61
2021/12/12 03:00:27;;;;;;;85.72;37.40;;;;;;;;;;6196245;28;20047;-61
2021/12/12 03:03:29;;;;;;;79.57;37.67;;;;;;;;;;6194825;28;20093;-61
2021/12/12 03:06:34;;;;;;;82.05;38.85;;;;;;;;;;6192271;28;20058;-61
2021/12/12 03:09:45;;;;;;;85.65;37.60;;;;;;;;;;6195373;28;20830;-61
2021/12/12 03:12:46;;;;;;;82.38;37.65;;;;;;;;;;6194042;28;20088;-62
2021/12/12 03:15:48;;;;;;;84.57;37.13;;;;;;;;;;6195360;28;20407;-61
2021/12/12 03:18:48;;;;;;;77.43;36.83;;;;;;;;;;6195720;28;20053;-61
2021/12/12 03:21:49;;;;;;;85.63;38.15;;;;;;;;;;6197310;28;20100;-61
2021/12/12 03:24:51;;;;;;;81.38;35.13;;;;;;;;;;6196590;28;20058;-61
2021/12/12 03:27:52;;;;;;;80.45;34.78;;;;;;;;;;6190918;28;20043;-60
2021/12/12 03:30:56;;;;;;;86.82;37.97;;;;;;;;;;6196780;28;20081;-61
2021/12/12 03:33:57;;;;;;;91.00;38.25;;;;;;;;;;6192850;28;20086;-61
2021/12/12 03:36:59;;;;;;;82.05;38.08;;;;;;;;;;6195753;28;20809;-61
2021/12/12 03:40:08;;;;;;;86.40;37.70;;;;;;;;;;6197505;28;20047;-61
2021/12/12 03:43:10;;;;;;;82.13;37.20;;;;;;;;;;6192751;28;20050;-61
2021/12/12 03:46:11;;;;;;;88.93;37.80;;;;;;;;;;6199882;28;20049;-60
2021/12/12 03:49:12;;;;;;;81.90;38.15;;;;;;;;;;6200445;28;20092;-61
2021/12/12 03:52:15;;;;;;;87.75;38.42;;;;;;;;;;6199649;28;20057;-60
2021/12/12 03:55:17;;;;;;;87.32;38.42;;;;;;;;;;6196725;28;20133;-61
2021/12/12 03:58:18;;;;;;;80.32;39.95;;;;;;;;;;6198610;28;20301;-61
2021/12/12 04:01:28;;;;;;;90.05;41.33;;;;;;;;;;6194683;28;20397;-60
2021/12/12 04:04:36;;;;;;;84.63;41.08;;;;;;;;;;6201018;28;20060;-60
2021/12/12 04:07:37;;;;;;;88.47;40.85;;;;;;;;;;6200382;28;20111;-60
2021/12/12 04:10:38;;;;;;;92.30;40.65;;;;;;;;;;6196884;28;20042;-61
2021/12/12 04:13:41;;;;;;;83.45;37.10;;;;;;;;;;6192960;28;20455;-61
2021/12/12 04:16:45;;;;;;;75.68;34.83;;;;;;;;;;6206552;28;20104;-61
2021/12/12 04:19:48;;;;;;;79.70;37.13;;;;;;;;;;6192489;28;20054;-61
2021/12/12 04:22:49;;;;;;;78.50;35.35;;;;;;;;;;6197629;28;20050;-61
2021/12/12 04:25:51;;;;;;;79.25;34.92;;;;;;;;;;6193544;28;20142;-61
2021/12/12 04:29:06;;;;;;;85.07;38.83;;;;;;;;;;6194014;28;20493;-61
2021/12/12 04:32:25;;;;;;;86.13;36.90;;;;;;;;;;6203929;28;20399;-61
2021/12/12 04:35:27;;;;;;;78.57;35.00;;;;;;;;;;6197267;28;20501;-61
2021/12/12 04:38:28;;;;;;;77.35;35.38;;;;;;;;;;6202900;28;20148;-61
2021/12/12 04:41:29;;;;;;;79.60;35.92;;;;;;;;;;6203594;28;20054;-61
2021/12/12 04:44:34;;;;;;;74.65;36.08;;;;;;;;;;6213727;28;20172;-61
2021/12/12 04:51:38;;;;;;;71.40;33.53;;;;;;;;;;6205375;28;20409;-61
2021/12/12 04:54:45;;;;;;;78.82;34.22;;;;;;;;;;6207029;28;20476;-61
2021/12/12 04:57:54;;;;;;;77.25;34.95;;;;;;;;;;6202127;28;20042;-61
2021/12/12 05:00:58;;;;;;;70.45;33.83;;;;;;;;;;6202111;28;20076;-62
2021/12/12 05:04:22;;;;;;;71.07;32.55;;;;;;;;;;6202379;28;20520;-61
2021/12/12 05:07:34;;;;;;;73.30;33.58;;;;;;;;;;6201055;28;20078;-61
2021/12/12 05:10:39;;;;;;;74.25;33.20;;;;;;;;;;6200339;28;20056;-61
2021/12/12 05:13:49;;;;;;;68.18;32.25;;;;;;;;;;6206398;28;20062;-61
2021/12/12 05:17:09;;;;;;;69.38;32.35;;;;;;;;;;6208313;28;20050;-61
2021/12/12 05:20:19;;;;;;;72.15;33.38;;;;;;;;;;6202906;28;20486;-61
2021/12/12 05:23:24;;;;;;;72.35;33.72;;;;;;;;;;6202959;28;20681;-61
2021/12/12 05:26:43;;;;;;;78.47;34.88;;;;;;;;;;6206081;28;20141;-61
2021/12/12 05:30:01;;;;;;;74.90;34.50;;;;;;;;;;6203089;28;20044;-61
2021/12/12 05:33:04;;;;;;;76.13;34.83;;;;;;;;;;6201783;28;20059;-61
2021/12/12 05:36:11;;;;;;;70.43;33.47;;;;;;;;;;6203903;28;20050;-61
2021/12/12 05:39:12;;;;;;;73.20;33.92;;;;;;;;;;6207404;28;20093;-61
2021/12/12 05:42:14;;;;;;;75.73;34.83;;;;;;;;;;6206181;28;20056;-61
2021/12/12 05:45:15;;;;;;;73.72;34.17;;;;;;;;;;6200905;28;20117;-61
2021/12/12 05:48:16;;;;;;;77.78;35.13;;;;;;;;;;6210069;28;20476;-61
2021/12/12 05:51:18;;;;;;;80.35;36.55;;;;;;;;;;6210394;28;20088;-61
2021/12/12 05:54:19;;;;;;;77.60;35.00;;;;;;;;;;6206502;28;20504;-61
2021/12/12 05:57:25;;;;;;;79.97;34.75;;;;;;;;;;6206720;28;20049;-61
2021/12/12 06:00:32;;;;;;;75.70;34.40;;;;;;;;;;6209433;28;20070;-61
2021/12/12 06:03:37;;;;;;;71.97;34.38;;;;;;;;;;6208175;28;20042;-61
2021/12/12 06:06:42;;;;;;;77.68;34.67;;;;;;;;;;6203111;28;20529;-61
2021/12/12 06:09:44;;;;;;;78.15;35.80;;;;;;;;;;6200238;28;20069;-61
2021/12/12 06:12:46;;;;;;;74.28;34.63;;;;;;;;;;6207140;28;20127;-61
2021/12/12 06:15:51;;;;;;;77.38;34.05;;;;;;;;;;6200088;28;20050;-62
2021/12/12 06:18:57;;;;;;;75.68;35.05;;;;;;;;;;6207194;28;20053;-62
2021/12/12 06:22:00;;;;;;;74.70;34.33;;;;;;;;;;6206951;28;20074;-62
2021/12/12 06:25:00;;;;;;;73.32;33.65;;;;;;;;;;6208217;28;20123;-62
2021/12/12 06:28:08;;;;;;;69.53;32.70;;;;;;;;;;6203544;28;20471;-61
2021/12/12 06:31:09;;;;;;;68.30;34.22;;;;;;;;;;6206065;28;20169;-61
2021/12/12 06:34:11;;;;;;;77.65;34.22;;;;;;;;;;6201845;28;20054;-61
2021/12/12 06:37:13;;;;;;;76.88;35.17;;;;;;;;;;6205150;28;20052;-62
2021/12/12 06:40:19;;;;;;;82.68;35.92;;;;;;;;;;6200232;28;20928;-61
2021/12/12 06:43:22;;;;;;;78.55;35.15;;;;;;;;;;6208571;28;20048;-62
2021/12/12 06:46:23;;;;;;;75.43;35.75;;;;;;;;;;6198264;28;20096;-62
2021/12/12 06:49:24;;;;;;;88.57;37.90;;;;;;;;;;6207120;28;20449;-61
2021/12/12 06:52:26;;;;;;;77.70;36.17;;;;;;;;;;6207498;28;20054;-61
2021/12/12 06:55:27;;;;;;;74.38;35.45;;;;;;;;;;6203989;28;20050;-61
2021/12/12 06:58:29;;;;;;;81.35;36.80;;;;;;;;;;6201018;28;20113;-61
2021/12/12 07:01:32;;;;;;;76.22;35.75;;;;;;;;;;6209111;28;20546;-61
2021/12/12 07:04:35;;;;;;;75.65;35.95;;;;;;;;;;6197115;28;20057;-61
2021/12/12 07:07:35;;;;;;;76.53;34.83;;;;;;;;;;6201692;28;20053;-61
2021/12/12 07:10:36;;;;;;;77.80;37.22;;;;;;;;;;6206457;28;20437;-61
2021/12/12 07:13:37;;;;;;;78.78;36.58;;;;;;;;;;6202922;28;20520;-61
2021/12/12 07:16:39;;;;;;;75.38;34.38;;;;;;;;;;6203949;28;20481;-61
2021/12/12 07:19:40;;;;;;;77.95;37.72;;;;;;;;;;6204667;28;20057;-62
2021/12/12 07:22:41;;;;;;;77.10;35.57;;;;;;;;;;6206112;28;20053;-62
2021/12/12 07:25:44;;;;;;;67.43;33.75;;;;;;;;;;6201287;28;20140;-61
2021/12/12 07:28:45;;;;;;;;;;;;;;;;;;6206129;28;20084;-61
2021/12/12 07:31:47;;;;;;;75.65;32.40;;;;;;;;;;6203804;28;20281;-61
2021/12/12 07:34:48;;;;;;;73.43;36.60;;;;;;;;;;6206174;28;20532;-61
2021/12/12 07:37:49;;;;;;;78.05;35.70;;;;;;;;;;6204284;28;20044;-62
2021/12/12 07:40:50;;;;;;;83.45;39.67;;;;;;;;;;6200667;28;20134;-61
2021/12/12 07:43:51;;;;;;;77.18;37.63;;;;;;;;;;6202302;28;20050;-61
2021/12/12 07:46:52;;;;;;;78.25;36.47;;;;;;;;;;6202021;28;20490;-61
2021/12/12 07:49:53;;;;;;;71.38;34.15;;;;;;;;;;6204006;28;20450;-61
2021/12/12 07:52:55;;;;;;;68.68;32.13;;;;;;;;;;6206433;28;20065;-61
2021/12/12 07:55:56;;;;;;;65.95;31.52;;;;;;;;;;6201183;28;20080;-61
2021/12/12 07:58:59;;;;;;;63.25;29.35;;;;;;;;;;6200332;28;20527;-61
2021/12/12 08:02:02;;;;;;;66.82;30.02;;;;;;;;;;6201178;28;20046;-69
2021/12/12 08:05:04;;;;;;;69.35;33.05;;;;;;;;;;6215338;28;20049;-61
2021/12/12 08:08:10;;;;;;;71.05;33.47;;;;;;;;;;6206460;28;20477;-61
2021/12/12 08:11:16;;;;;;;79.32;34.80;;;;;;;;;;6205744;28;20052;-60
2021/12/12 08:14:23;;;;;;;72.55;34.13;;;;;;;;;;6212993;28;20481;-64
2021/12/12 08:17:25;;;;;;;75.68;34.63;;;;;;;;;;6207237;28;20069;-60
2021/12/12 08:20:27;;;;;;;75.43;34.92;;;;;;;;;;6211917;28;20038;-60
2021/12/12 08:23:28;;;;;;;;;;;;;;;;;;6213975;28;20969;-60
2021/12/12 08:26:32;;;;;;;80.83;36.90;;;;;;;;;;6216578;28;19925;-60
2021/12/12 08:29:33;;;;;;;;;;;;;;;;;;6216957;28;20089;-60
2021/12/12 08:32:34;;;;;;;62.97;33.22;;;;;;;;;;6213408;28;20317;-70
2021/12/12 08:35:36;;;;;;;62.47;33.63;;;;;;;;;;6213975;28;20053;-59
2021/12/12 08:38:37;;;;;;;68.40;33.88;;;;;;;;;;6208333;28;20042;-61
2021/12/12 08:41:40;;;;;;;70.90;34.53;;;;;;;;;;6217821;28;20160;-65
2021/12/12 08:44:41;;;;;;;72.95;35.75;;;;;;;;;;6216372;28;20064;-60
2021/12/12 08:47:43;;;;;;;68.00;34.70;;;;;;;;;;6215307;28;20038;-59
2021/12/12 08:50:48;;;;;;;60.05;32.53;;;;;;;;;;6210519;28;20448;-59
2021/12/12 08:53:51;;;;;;;60.63;29.90;;;;;;;;;;6213837;28;20450;-60
2021/12/12 08:57:09;;;;;;;57.50;29.25;;;;;;;;;;6215457;28;20107;-59
2021/12/12 09:00:16;;;;;;;54.40;26.92;;;;;;;;;;6207080;28;20459;-60
2021/12/12 09:03:25;;;;;;;55.08;27.55;;;;;;;;;;6216124;28;20054;-59
2021/12/12 09:06:31;;;;;;;56.60;27.42;;;;;;;;;;6209134;28;20047;-60
2021/12/12 09:09:42;;;;;;;53.05;26.27;;;;;;;;;;6203017;28;20048;-60
2021/12/12 09:13:04;;;;;;;55.75;27.40;;;;;;;;;;6210704;28;20081;-60
2021/12/12 09:16:07;;;;;;;53.17;25.85;;;;;;;;;;6213778;28;20050;-60
2021/12/12 09:19:13;;;;;;;60.58;27.02;;;;;;;;;;6206656;28;20069;-61
2021/12/12 09:22:28;;;;;;;59.13;27.77;;;;;;;;;;6209639;28;20049;-60
2021/12/12 09:25:38;;;;;;;60.60;28.05;;;;;;;;;;6208525;28;20073;-61
2021/12/12 09:28:39;;;;;;;61.67;29.83;;;;;;;;;;6212458;28;20506;-61
2021/12/12 09:31:52;;;;;;;65.20;28.90;;;;;;;;;;6212805;28;20136;-61
2021/12/12 09:34:59;;;;;;;58.58;28.33;;;;;;;;;;6215483;28;20052;-61
2021/12/12 09:38:15;;;;;;;60.97;29.35;;;;;;;;;;6216363;28;20092;-61
2021/12/12 09:41:30;;;;;;;58.28;28.40;;;;;;;;;;6216676;28;20121;-60
2021/12/12 09:44:40;;;;;;;63.88;29.23;;;;;;;;;;6212165;28;20073;-61
2021/12/12 09:48:03;;;;;;;66.75;30.83;;;;;;;;;;6218540;28;20134;-61
2021/12/12 09:51:20;;;;;;;67.65;31.58;;;;;;;;;;6213971;28;20053;-62
2021/12/12 09:54:34;;;;;;;64.05;31.75;;;;;;;;;;6211211;28;20061;-61
2021/12/12 09:58:00;;;;;;;69.75;33.08;;;;;;;;;;6214002;28;20108;-61
2021/12/12 10:01:13;;;;;;;67.95;32.30;;;;;;;;;;6218129;28;20398;-62
2021/12/12 10:04:30;;;;;;;79.63;35.92;;;;;;;;;;6214632;28;20077;-61
2021/12/12 10:07:53;;;;;;;76.93;37.97;;;;;;;;;;6216295;28;20077;-61
2021/12/12 10:11:22;;;;;;;81.13;40.30;;;;;;;;;;6212707;28;20042;-61
2021/12/12 10:14:30;;;;;;;80.97;39.95;;;;;;;;;;6215100;28;20054;-61
2021/12/12 10:17:48;;;;;;;86.60;41.88;;;;;;;;;;6198308;28;20054;-60
2021/12/12 10:21:01;;;;;;;83.78;42.50;;;;;;;;;;6215765;28;20085;-60
2021/12/12 10:24:31;;;;;;;87.47;41.58;;;;;;;;;;6212932;28;20466;-60
2021/12/12 10:27:57;;;;;;;90.55;41.95;;;;;;;;;;6199731;28;20496;-60
2021/12/12 10:31:12;;;;;;;91.90;43.40;;;;;;;;;;6217986;28;20493;-61
2021/12/12 10:34:22;;;;;;;102.07;44.35;;;;;;;;;;6219112;28;20058;-60
2021/12/12 10:37:40;;;;;;;87.13;42.10;;;;;;;;;;6217292;28;20421;-60
2021/12/12 10:40:59;;;;;;;87.45;43.58;;;;;;;;;;6212846;28;20416;-61
2021/12/12 10:44:12;;;;;;;93.38;44.38;;;;;;;;;;6218132;28;20068;-61
2021/12/12 10:47:28;;;;;;;85.53;40.25;;;;;;;;;;6219816;28;20053;-60
2021/12/12 10:50:31;;;;;;;77.80;36.30;;;;;;;;;;6220251;28;20127;-60
2021/12/12 10:53:37;;;;;;;67.43;33.90;;;;;;;;;;6210978;28;20050;-61
2021/12/12 10:56:42;;;;;;;62.80;29.67;;;;;;;;;;6213650;28;20058;-61
2021/12/12 10:59:56;;;;;;;73.70;34.00;;;;;;;;;;6210483;28;20389;-61
2021/12/12 11:03:05;;;;;;;78.90;36.17;;;;;;;;;;6216096;28;20135;-60
2021/12/12 11:06:15;;;;;;;82.85;38.13;;;;;;;;;;6214428;28;20039;-60
2021/12/12 11:09:29;;;;;;;81.03;36.17;;;;;;;;;;6215595;28;20046;-61
2021/12/12 11:12:35;;;;;;;84.82;37.75;;;;;;;;;;6218340;28;20045;-61
2021/12/12 11:15:42;;;;;;;74.22;34.75;;;;;;;;;;6216190;28;20049;-61
2021/12/12 11:18:47;;;;;;;74.45;33.05;;;;;;;;;;6213228;28;20137;-61
2021/12/12 11:21:55;;;;;;;73.38;34.78;;;;;;;;;;6216407;28;20062;-61
2021/12/12 11:25:04;;;;;;;81.50;38.40;;;;;;;;;;6215214;28;20053;-62
2021/12/12 11:28:11;;;;;;;82.82;37.97;;;;;;;;;;6211500;28;20050;-60
2021/12/12 11:31:24;;;;;;;86.80;41.90;;;;;;;;;;6221064;28;20060;-61
2021/12/12 11:34:27;;;;;;;87.20;39.60;;;;;;;;;;6213376;28;20050;-60
2021/12/12 11:37:39;;;;;;;84.90;37.88;;;;;;;;;;6209985;28;20045;-63
2021/12/12 11:40:44;;;;;;;66.82;31.02;;;;;;;;;;6204572;28;20108;-60
2021/12/12 11:43:56;;;;;;;58.83;27.35;;;;;;;;;;6209099;28;20528;-62
2021/12/12 11:47:07;;;;;;;56.50;25.75;;;;;;;;;;6204852;28;20068;-60
2021/12/12 11:50:33;;;;;;;58.53;27.00;;;;;;;;;;6210408;28;20045;-60
2021/12/12 11:53:39;;;;;;;46.15;22.70;;;;;;;;;;6209029;28;20192;-60
2021/12/12 11:56:49;;;;;;;52.15;25.92;;;;;;;;;;6211461;28;20045;-60
2021/12/12 12:00:05;;;;;;;57.83;25.80;;;;;;;;;;6213436;28;20046;-60
2021/12/12 12:03:23;;;;;;;84.20;32.25;;;;;;;;;;6211842;28;20041;-61
2021/12/12 12:07:01;;;;;;;104.25;36.38;;;;;;;;;;6213431;28;20046;-60
2021/12/12 12:10:08;;;;;;;71.47;27.90;;;;;;;;;;6201536;28;20074;-60
2021/12/12 12:13:40;;;;;;;55.60;24.63;;;;;;;;;;6205286;28;20049;-60
2021/12/12 12:16:51;;;;;;;59.05;24.05;;;;;;;;;;6204491;28;20062;-60
2021/12/12 12:20:07;;;;;;;56.03;24.17;;;;;;;;;;6201227;28;20161;-59
2021/12/12 12:23:17;;;;;;;73.40;29.33;;;;;;;;;;6204819;28;20076;-60
2021/12/12 12:29:38;;;;;;;63.03;27.45;;;;;;;;;;6194173;28;20438;-61
2021/12/12 12:33:10;;;;;;;57.80;26.27;;;;;;;;;;6196279;28;20080;-59
2021/12/12 12:36:23;;;;;;;71.43;28.25;;;;;;;;;;6196135;28;20050;-60
2021/12/12 12:39:48;;;;;;;73.95;31.92;;;;;;;;;;6198555;28;20135;-60
2021/12/12 12:43:26;;;;;;;60.75;26.00;;;;;;;;;;6200860;28;20101;-60
2021/12/12 12:46:55;;;;;;;62.33;26.77;;;;;;;;;;6204428;28;20549;-59
2021/12/12 12:50:46;;;;;;;66.10;28.27;;;;;;;;;;6200730;28;20592;-60
2021/12/12 12:54:25;;;;;;;66.07;28.95;;;;;;;;;;6201448;28;20057;-60
2021/12/12 12:57:30;;;;;;;63.67;27.70;;;;;;;;;;6203159;28;20053;-60
2021/12/12 13:00:33;;;;;;;65.20;28.40;;;;;;;;;;6204354;28;20073;-59
2021/12/12 13:03:33;;;;;;;;;;;;;;;;;;6205772;28;20053;-60
2021/12/12 13:06:52;;;;;;;57.22;24.75;;;;;;;;;;6205686;28;19972;-60
2021/12/12 13:09:58;;;;;;;58.17;24.67;;;;;;;;;;6204336;28;20078;-59
2021/12/12 13:13:22;;;;;;;58.78;24.42;;;;;;;;;;6206699;28;20050;-59
2021/12/12 13:16:44;;;;;;;47.80;21.75;;;;;;;;;;6202667;28;20053;-62
2021/12/12 13:19:59;;;;;;;55.97;23.75;;;;;;;;;;6204708;28;20061;-61
2021/12/12 13:23:17;;;;;;;49.20;21.50;;;;;;;;;;6205761;28;20459;-61
2021/12/12 13:26:45;;;;;;;53.25;22.45;;;;;;;;;;6204692;28;20848;-61
2021/12/12 13:30:04;;;;;;;56.00;24.33;;;;;;;;;;6203471;28;20468;-61
2021/12/12 13:33:11;;;;;;;46.78;22.42;;;;;;;;;;6206128;28;20081;-61
2021/12/12 13:36:36;;;;;;;42.72;20.08;;;;;;;;;;6208761;28;20073;-59
2021/12/12 13:40:16;;;;;;;45.65;19.73;;;;;;;;;;6207536;28;20073;-60
2021/12/12 13:43:33;;;;;;;39.88;18.40;;;;;;;;;;6208875;28;20068;-60
2021/12/12 13:47:08;;;;;;;44.25;21.40;;;;;;;;;;6207581;28;20096;-59
2021/12/12 13:50:26;;;;;;;45.17;20.85;;;;;;;;;;6202252;28;20144;-60
2021/12/12 13:54:01;;;;;;;44.83;20.13;;;;;;;;;;6203992;28;20050;-61
2021/12/12 13:57:07;;;;;;;46.30;21.45;;;;;;;;;;6203317;28;20413;-60
2021/12/12 14:00:19;;;;;;;49.65;21.75;;;;;;;;;;6202198;28;20852;-61
2021/12/12 14:03:43;;;;;;;45.55;21.73;;;;;;;;;;6204900;28;20239;-61
2021/12/12 14:06:44;;;;;;;58.10;23.85;;;;;;;;;;6204483;28;20630;-60
2021/12/12 14:09:48;;;;;;;47.40;21.63;;;;;;;;;;6205777;28;20059;-60
2021/12/12 14:12:52;;;;;;;47.60;22.23;;;;;;;;;;6203336;28;20100;-60
2021/12/12 14:16:13;;;;;;;63.85;26.13;;;;;;;;;;6204028;28;20576;-60
2021/12/12 14:19:21;;;;;;;63.95;27.17;;;;;;;;;;6204932;28;20077;-60
2021/12/12 14:22:22;;;;;;;66.53;27.95;;;;;;;;;;6203576;28;20449;-60
2021/12/12 14:25:24;;;;;;;67.20;29.33;;;;;;;;;;6202623;28;20496;-60
2021/12/12 14:28:27;;;;;;;64.07;29.33;;;;;;;;;;6205090;28;20054;-59
2021/12/12 14:31:32;;;;;;;68.50;29.42;;;;;;;;;;6203894;28;20133;-60
2021/12/12 14:34:42;;;;;;;83.72;33.70;;;;;;;;;;6203930;28;20050;-59
2021/12/12 14:37:45;;;;;;;80.25;35.85;;;;;;;;;;6204269;28;20049;-60
2021/12/12 14:40:58;;;;;;;76.63;36.15;;;;;;;;;;6205222;28;20069;-59
2021/12/12 14:44:03;;;;;;;73.00;34.75;;;;;;;;;;6207049;28;20081;-59
2021/12/12 14:47:28;;;;;;;73.53;33.92;;;;;;;;;;6207713;28;20060;-59
2021/12/12 14:50:46;;;;;;;66.72;31.67;;;;;;;;;;6202396;28;20052;-60
2021/12/12 14:53:50;;;;;;;81.28;35.55;;;;;;;;;;6206827;28;20108;-59
2021/12/12 14:56:58;;;;;;;71.55;35.17;;;;;;;;;;6209088;28;20108;-60
2021/12/12 15:00:09;;;;;;;76.78;33.88;;;;;;;;;;6204929;28;20054;-60
2021/12/12 15:03:17;;;;;;;92.28;39.80;;;;;;;;;;6204708;28;20050;-59
2021/12/12 15:06:24;;;;;;;79.88;37.47;;;;;;;;;;6201329;28;20064;-60
2021/12/12 15:09:48;;;;;;;74.60;35.35;;;;;;;;;;6199570;28;20042;-61
2021/12/12 15:12:53;;;;;;;80.45;37.28;;;;;;;;;;6200650;28;20060;-60
2021/12/12 15:16:03;;;;;;;71.35;31.35;;;;;;;;;;6202767;28;20136;-59
2021/12/12 15:19:10;;;;;;;80.43;34.95;;;;;;;;;;6201105;28;20058;-62
2021/12/12 15:22:13;;;;;;;82.97;37.75;;;;;;;;;;6201876;28;20054;-61
2021/12/12 15:25:22;;;;;;;87.60;39.17;;;;;;;;;;6198577;28;20176;-60
2021/12/12 15:28:29;;;;;;;86.32;39.40;;;;;;;;;;6196628;28;20164;-62
2021/12/12 15:31:47;;;;;;;89.30;41.28;;;;;;;;;;6201241;28;20049;-59
2021/12/12 15:35:05;;;;;;;90.90;42.40;;;;;;;;;;6201110;28;20085;-61
2021/12/12 15:38:18;;;;;;;93.13;42.88;;;;;;;;;;6199515;28;20415;-61
2021/12/12 15:41:26;;;;;;;101.30;46.25;;;;;;;;;;6198857;28;20069;-60
2021/12/12 15:44:35;;;;;;;114.20;47.85;;;;;;;;;;6197466;28;20540;-61
2021/12/12 15:47:38;;;;;;;109.30;46.13;;;;;;;;;;6198199;28;20050;-60
2021/12/12 15:50:40;;;;;;;100.85;45.42;;;;;;;;;;6198484;28;20075;-60
2021/12/12 15:53:50;;;;;;;96.07;45.00;;;;;;;;;;6201308;28;20092;-60
2021/12/12 15:57:04;;;;;;;110.53;48.42;;;;;;;;;;6199109;28;20076;-61
2021/12/12 16:00:22;;;;;;;106.90;46.25;;;;;;;;;;6195718;28;20107;-61
2021/12/12 16:03:27;;;;;;;112.13;48.00;;;;;;;;;;6199390;28;20046;-61
2021/12/12 16:06:35;;;;;;;103.35;46.10;;;;;;;;;;6199049;28;20045;-63
2021/12/12 16:09:39;;;;;;;107.68;47.70;;;;;;;;;;6196670;28;20054;-61
2021/12/12 16:12:44;;;;;;;104.28;46.60;;;;;;;;;;6198160;28;20196;-60
2021/12/12 16:15:48;;;;;;;108.47;46.08;;;;;;;;;;6198441;28;20497;-60
2021/12/12 16:18:57;;;;;;;103.32;45.03;;;;;;;;;;6193099;28;20588;-60
2021/12/12 16:22:03;;;;;;;102.75;45.78;;;;;;;;;;6195644;28;20064;-60
2021/12/12 16:25:14;;;;;;;102.13;47.42;;;;;;;;;;6194990;28;20153;-60
2021/12/12 16:28:18;;;;;;;105.05;44.10;;;;;;;;;;6193364;28;20072;-59
2021/12/12 16:31:20;;;;;;;110.50;49.13;;;;;;;;;;6194097;28;20052;-60
2021/12/12 16:34:27;;;;;;;110.77;49.30;;;;;;;;;;6203385;28;20060;-60
2021/12/12 16:37:32;;;;;;;115.53;47.92;;;;;;;;;;6206459;28;20062;-60
2021/12/12 16:40:40;;;;;;;105.32;46.30;;;;;;;;;;6203021;28;20058;-60
2021/12/12 16:43:54;;;;;;;115.75;49.75;;;;;;;;;;6204841;28;20157;-60
2021/12/12 16:46:58;;;;;;;109.45;48.75;;;;;;;;;;6207540;28;20137;-60
2021/12/12 16:50:05;;;;;;;106.38;45.58;;;;;;;;;;6205207;28;20231;-61
2021/12/12 16:53:07;;;;;;;117.20;49.25;;;;;;;;;;6202628;28;20512;-60
2021/12/12 16:56:18;;;;;;;117.77;52.17;;;;;;;;;;6206304;28;20077;-61
2021/12/12 16:59:38;;;;;;;121.53;51.55;;;;;;;;;;6204591;28;20295;-60
2021/12/12 17:02:43;;;;;;;118.88;49.03;;;;;;;;;;6207059;28;20556;-62
2021/12/12 17:05:46;;;;;;;139.35;60.33;;;;;;;;;;6198600;28;20635;-59
2021/12/12 17:12:05;;;;;;;135.48;57.33;;;;;;;;;;6204228;28;20417;-59
2021/12/12 17:15:16;;;;;;;143.63;62.28;;;;;;;;;;6202045;28;20085;-59
2021/12/12 17:18:32;;;;;;;140.27;57.75;;;;;;;;;;6195308;28;20053;-59
2021/12/12 17:21:34;;;;;;;150.43;60.80;;;;;;;;;;6197764;28;20062;-59
2021/12/12 17:24:41;;;;;;;137.80;59.90;;;;;;;;;;6199294;28;20089;-59
2021/12/12 17:27:43;;;;;;;140.75;62.03;;;;;;;;;;6196720;28;20145;-60
2021/12/12 17:30:51;;;;;;;140.88;60.95;;;;;;;;;;6196017;28;20058;-60
2021/12/12 17:33:58;;;;;;;138.43;61.88;;;;;;;;;;6197027;28;20070;-61
2021/12/12 17:37:07;;;;;;;128.73;60.90;;;;;;;;;;6197811;28;20060;-58
2021/12/12 17:40:20;;;;;;;138.48;61.58;;;;;;;;;;6191383;28;20094;-61
2021/12/12 17:43:44;;;;;;;;;;;;;;;;;;6200299;28;20156;-61
2021/12/12 17:47:02;;;;;;;122.68;53.10;;;;;;;;;;6199053;28;20376;-61
2021/12/12 17:50:21;;;;;;;138.00;55.72;;;;;;;;;;6199256;28;20100;-60
2021/12/12 17:53:26;;;;;;;129.70;53.65;;;;;;;;;;6204557;28;20086;-60
2021/12/12 17:56:39;;;;;;;162.82;61.38;;;;;;;;;;6200631;28;20283;-63
2021/12/12 17:59:51;;;;;;;166.82;60.45;;;;;;;;;;6204173;28;20505;-61
2021/12/12 18:02:57;;;;;;;144.50;58.15;;;;;;;;;;6206480;28;20075;-60
2021/12/12 18:05:59;;;;;;;161.52;61.10;;;;;;;;;;6205242;28;20184;-60
2021/12/12 18:09:12;;;;;;;140.20;58.40;;;;;;;;;;6205249;28;20153;-61
2021/12/12 18:12:20;;;;;;;148.82;58.15;;;;;;;;;;6204856;28;20148;-61
2021/12/12 18:15:20;;;;;;;152.73;59.97;;;;;;;;;;6204045;28;20057;-61
2021/12/12 18:18:40;;;;;;;157.38;60.53;;;;;;;;;;6204444;28;20037;-61
2021/12/12 18:21:54;;;;;;;142.48;61.05;;;;;;;;;;6206731;28;20072;-61
2021/12/12 18:24:57;;;;;;;138.20;57.53;;;;;;;;;;6207425;28;20532;-61
2021/12/12 18:28:04;;;;;;;147.38;58.13;;;;;;;;;;6202069;28;20053;-61
2021/12/12 18:31:10;;;;;;;133.35;54.53;;;;;;;;;;6205943;28;20082;-61
2021/12/12 18:34:13;;;;;;;117.25;49.45;;;;;;;;;;6206726;28;20061;-61
2021/12/12 18:37:18;;;;;;;131.32;52.92;;;;;;;;;;6207584;28;20068;-61
2021/12/12 18:40:35;;;;;;;156.02;53.88;;;;;;;;;;6203803;28;20421;-61